createdAt,value
2023-05-25T00:01:37.839Z,12.60
2023-05-25T00:04:05.206Z,11.82
2023-05-25T00:06:33.380Z,12.68
2023-05-25T00:09:00.585Z,13.13
2023-05-25T00:11:27.675Z,15.45
2023-05-25T00:13:54.959Z,12.23
2023-05-25T00:16:22.143Z,13.40
2023-05-25T00:18:49.276Z,15.52
2023-05-25T00:21:16.593Z,14.80
2023-05-25T00:23:43.724Z,15.57
2023-05-25T00:26:10.850Z,11.60
2023-05-25T00:28:37.966Z,14.13
2023-05-25T00:31:05.146Z,15.23
2023-05-25T00:33:32.296Z,17.40
2023-05-25T00:36:00.391Z,16.52
2023-05-25T00:38:27.464Z,14.48
2023-05-25T00:40:57.454Z,14.73
2023-05-25T00:43:24.586Z,20.08
2023-05-25T00:45:52.003Z,16.17
2023-05-25T00:48:19.133Z,13.43
2023-05-25T00:50:46.817Z,15.02
2023-05-25T00:53:14.799Z,15.48
2023-05-25T00:55:49.129Z,15.05
2023-05-25T00:58:20.731Z,12.32
2023-05-25T01:00:51.020Z,16.20
2023-05-25T01:03:22.170Z,11.93
2023-05-25T01:05:51.613Z,15.02
2023-05-25T01:08:22.842Z,12.00
2023-05-25T01:10:52.684Z,17.77
2023-05-25T01:13:21.662Z,15.45
2023-05-25T01:15:49.973Z,14.73
2023-05-25T01:18:18.204Z,12.45
2023-05-25T01:21:14.188Z,12.48
2023-05-25T01:23:48.051Z,14.32
2023-05-25T01:26:18.256Z,13.50
2023-05-25T01:28:52.267Z,14.73
2023-05-25T01:31:23.071Z,11.15
2023-05-25T01:33:51.883Z,13.57
2023-05-25T01:36:20.155Z,15.65
2023-05-25T01:38:47.426Z,14.85
2023-05-25T01:41:14.586Z,14.43
2023-05-25T01:43:42.114Z,14.32
2023-05-25T01:46:23.210Z,12.73
2023-05-25T01:49:09.583Z,16.85
2023-05-25T01:51:41.764Z,15.10
2023-05-25T01:54:18.744Z,14.00
2023-05-25T01:56:48.956Z,18.25
2023-05-25T01:59:19.914Z,14.82
2023-05-25T02:01:50.385Z,16.60
2023-05-25T02:04:19.476Z,17.17
2023-05-25T02:06:49.177Z,17.67
2023-05-25T02:09:16.398Z,17.02
2023-05-25T02:11:43.546Z,17.15
2023-05-25T02:14:11.229Z,16.20
2023-05-25T02:16:38.345Z,17.38
2023-05-25T02:19:05.601Z,16.88
2023-05-25T02:21:32.903Z,15.10
2023-05-25T02:24:00.534Z,18.85
2023-05-25T02:26:27.693Z,16.48
2023-05-25T02:28:57.404Z,15.02
2023-05-25T02:31:24.469Z,16.55
2023-05-25T02:33:51.611Z,17.38
2023-05-25T02:36:18.743Z,15.13
2023-05-25T02:38:47.599Z,17.42
2023-05-25T02:41:16.360Z,18.05
2023-05-25T02:43:43.650Z,17.13
2023-05-25T02:46:10.940Z,20.48
2023-05-25T02:48:38.366Z,17.38
2023-05-25T02:51:05.612Z,20.40
2023-05-25T02:53:32.685Z,15.00
2023-05-25T02:56:00.416Z,23.70
2023-05-25T02:58:27.825Z,18.00
2023-05-25T03:00:55.470Z,17.50
2023-05-25T03:03:22.730Z,20.42
2023-05-25T03:05:49.782Z,16.73
2023-05-25T03:08:17.269Z,19.77
2023-05-25T03:10:44.685Z,21.17
2023-05-25T03:13:11.887Z,21.50
2023-05-25T03:15:40.322Z,18.90
2023-05-25T03:18:07.617Z,21.55
2023-05-25T03:20:37.504Z,18.27
2023-05-25T03:23:04.739Z,22.20
2023-05-25T03:25:31.925Z,25.25
2023-05-25T03:27:59.045Z,22.20
2023-05-25T03:30:26.197Z,23.70
2023-05-25T03:32:53.407Z,21.30
2023-05-25T03:35:20.737Z,25.95
2023-05-25T03:37:47.883Z,21.00
2023-05-25T03:40:15.339Z,22.35
2023-05-25T03:42:42.427Z,24.25
2023-05-25T03:45:09.847Z,20.77
2023-05-25T03:47:37.317Z,21.73
2023-05-25T03:50:07.196Z,22.67
2023-05-25T03:52:34.307Z,20.15
2023-05-25T03:55:05.468Z,20.05
2023-05-25T03:57:32.596Z,21.15
2023-05-25T03:59:59.684Z,24.25
2023-05-25T04:02:26.798Z,21.52
2023-05-25T04:04:54.073Z,26.33
2023-05-25T04:07:21.266Z,24.33
2023-05-25T04:09:48.399Z,25.45
2023-05-25T04:12:15.518Z,22.52
2023-05-25T04:14:42.870Z,19.55
2023-05-25T04:17:10.070Z,21.00
2023-05-25T04:19:37.139Z,17.65
2023-05-25T04:22:04.591Z,18.88
2023-05-25T04:24:32.840Z,21.02
2023-05-25T04:27:02.328Z,18.67
2023-05-25T04:29:29.505Z,21.20
2023-05-25T04:31:56.754Z,18.83
2023-05-25T04:34:23.967Z,18.95
2023-05-25T04:36:51.077Z,16.10
2023-05-25T04:39:18.150Z,19.33
2023-05-25T04:41:45.348Z,19.08
2023-05-25T04:44:14.071Z,17.83
2023-05-25T04:46:41.234Z,16.27
2023-05-25T04:49:13.368Z,16.38
2023-05-25T04:51:40.432Z,16.50
2023-05-25T04:54:07.606Z,19.25
2023-05-25T04:56:34.731Z,18.20
2023-05-25T04:59:01.835Z,17.58
2023-05-25T05:01:29.503Z,15.82
2023-05-25T05:03:56.870Z,19.23
2023-05-25T05:06:25.945Z,16.73
2023-05-25T05:08:53.072Z,18.13
2023-05-25T05:11:20.192Z,14.88
2023-05-25T05:13:47.267Z,14.18
2023-05-25T05:16:14.417Z,17.85
2023-05-25T05:18:41.568Z,17.27
2023-05-25T05:21:08.612Z,18.23
2023-05-25T05:23:35.634Z,16.23
2023-05-25T05:26:05.164Z,14.73
2023-05-25T05:28:32.297Z,17.35
2023-05-25T05:30:59.414Z,14.20
2023-05-25T05:33:26.563Z,13.43
2023-05-25T05:35:54.857Z,13.38
2023-05-25T05:38:22.235Z,15.55
2023-05-25T05:40:49.349Z,17.33
2023-05-25T05:43:16.590Z,14.85
2023-05-25T05:45:43.964Z,14.90
2023-05-25T05:48:11.388Z,16.73
2023-05-25T05:50:41.781Z,12.38
2023-05-25T05:53:10.202Z,14.52
2023-05-25T05:55:37.360Z,15.57
2023-05-25T05:58:04.552Z,14.30
2023-05-25T06:00:32.087Z,11.85
2023-05-25T06:03:01.002Z,12.25
2023-05-25T06:05:28.607Z,15.38
2023-05-25T06:07:55.686Z,13.25
2023-05-25T06:10:22.776Z,13.07
2023-05-25T06:12:49.940Z,12.13
2023-05-25T06:15:17.165Z,12.25
2023-05-25T06:17:44.472Z,11.43
2023-05-25T06:20:11.717Z,10.82
2023-05-25T06:22:38.905Z,12.25
2023-05-25T06:25:06.552Z,13.85
2023-05-25T06:27:33.605Z,15.65
2023-05-25T06:30:00.733Z,12.43
2023-05-25T06:32:27.834Z,10.77
2023-05-25T06:34:55.538Z,11.27
2023-05-25T06:37:22.809Z,10.18
2023-05-25T06:39:49.842Z,13.60
2023-05-25T06:42:16.944Z,13.80
2023-05-25T06:44:44.026Z,12.30
2023-05-25T06:47:11.112Z,13.38
2023-05-25T06:49:38.233Z,13.38
2023-05-25T06:52:05.892Z,11.55
2023-05-25T06:54:33.247Z,11.98
2023-05-25T06:57:00.300Z,13.07
2023-05-25T06:59:27.454Z,15.25
2023-05-25T07:01:56.498Z,13.23
2023-05-25T07:04:23.751Z,14.57
2023-05-25T07:06:52.093Z,14.00
2023-05-25T07:09:19.344Z,14.38
2023-05-25T07:11:46.512Z,11.63
2023-05-25T07:14:13.577Z,11.90
2023-05-25T07:16:40.777Z,11.13
2023-05-25T07:19:07.990Z,13.52
2023-05-25T07:21:35.125Z,12.40
2023-05-25T07:24:02.830Z,12.73
2023-05-25T07:26:32.052Z,11.63
2023-05-25T07:28:59.240Z,10.63
2023-05-25T07:31:26.508Z,11.95
2023-05-25T07:33:55.585Z,12.82
2023-05-25T07:36:25.036Z,12.40
2023-05-25T07:38:52.908Z,14.63
2023-05-25T07:41:20.063Z,16.55
2023-05-25T07:43:47.230Z,11.93
2023-05-25T07:46:14.441Z,12.63
2023-05-25T07:48:41.525Z,13.68
2023-05-25T07:51:08.653Z,13.55
2023-05-25T07:53:35.712Z,14.20
2023-05-25T07:56:02.816Z,11.88
2023-05-25T07:58:29.859Z,13.23
2023-05-25T08:00:57.119Z,12.88
2023-05-25T08:03:39.737Z,14.77
2023-05-25T08:06:11.630Z,17.75
2023-05-25T08:08:38.801Z,15.13
2023-05-25T08:11:05.886Z,17.35
2023-05-25T08:13:32.964Z,14.60
2023-05-25T08:16:00.061Z,16.33
2023-05-25T08:18:27.113Z,17.38
2023-05-25T08:20:54.233Z,19.13
2023-05-25T08:23:22.143Z,14.85
2023-05-25T08:25:49.289Z,15.50
2023-05-25T08:28:16.332Z,14.35
2023-05-25T08:30:45.326Z,15.30
2023-05-25T08:33:13.053Z,13.00
2023-05-25T08:35:43.188Z,16.70
2023-05-25T08:38:10.508Z,19.63
2023-05-25T08:40:42.261Z,19.08
2023-05-25T08:43:09.407Z,19.75
2023-05-25T08:45:38.610Z,20.20
2023-05-25T08:48:12.349Z,16.00
2023-05-25T08:50:41.511Z,19.63
2023-05-25T08:53:12.011Z,21.33
2023-05-25T08:55:43.645Z,18.73
2023-05-25T08:58:19.583Z,19.58
2023-05-25T09:01:08.193Z,15.32
2023-05-25T09:05:38.032Z,18.38
2023-05-25T09:08:08.831Z,18.25
2023-05-25T09:10:37.521Z,16.52
2023-05-25T09:13:19.827Z,16.48
2023-05-25T09:15:49.568Z,20.35
2023-05-25T09:18:16.691Z,19.45
2023-05-25T09:20:46.443Z,19.70
2023-05-25T09:23:16.197Z,19.15
2023-05-25T09:25:44.622Z,19.67
2023-05-25T09:30:41.867Z,20.83
2023-05-25T09:33:17.992Z,19.85
2023-05-25T09:35:46.236Z,20.40
2023-05-25T09:38:17.187Z,21.58
2023-05-25T09:40:45.451Z,18.13
2023-05-25T09:43:24.974Z,20.90
2023-05-25T09:46:00.011Z,19.08
2023-05-25T09:48:29.449Z,21.30
2023-05-25T09:50:57.027Z,23.10
2023-05-25T09:53:24.089Z,20.50
2023-05-25T09:55:54.237Z,19.58
2023-05-25T09:58:25.321Z,19.42
2023-05-25T10:00:55.676Z,18.20
2023-05-25T10:03:23.367Z,22.73
2023-05-25T10:05:52.041Z,19.60
2023-05-25T10:08:21.999Z,22.05
2023-05-25T10:10:50.321Z,20.95
2023-05-25T10:13:27.333Z,21.17
2023-05-25T10:15:54.880Z,18.58
2023-05-25T10:18:26.377Z,17.15
2023-05-25T10:21:03.201Z,20.65
2023-05-25T10:23:38.145Z,21.65
2023-05-25T10:26:06.466Z,22.25
2023-05-25T10:28:39.424Z,17.40
2023-05-25T10:31:07.288Z,18.80
2023-05-25T10:33:34.700Z,23.95
2023-05-25T10:36:10.600Z,19.33
2023-05-25T10:38:40.646Z,19.23
2023-05-25T10:41:11.287Z,20.00
2023-05-25T10:43:39.992Z,23.33
2023-05-25T10:46:08.033Z,17.75
2023-05-25T10:48:39.234Z,21.60
2023-05-25T10:51:09.098Z,19.35
2023-05-25T10:53:38.574Z,22.10
2023-05-25T10:56:07.539Z,21.48
2023-05-25T10:58:34.685Z,20.63
2023-05-25T11:01:12.868Z,23.70
2023-05-25T11:04:16.132Z,19.80
2023-05-25T11:06:46.576Z,19.90
2023-05-25T11:09:27.224Z,21.05
2023-05-25T11:11:56.359Z,23.48
2023-05-25T11:14:28.088Z,19.00
2023-05-25T11:17:15.256Z,22.63
2023-05-25T11:19:51.538Z,21.33
2023-05-25T11:22:23.634Z,21.85
2023-05-25T11:24:52.237Z,21.55
2023-05-25T11:27:46.837Z,20.65
2023-05-25T11:30:18.291Z,20.80
2023-05-25T11:32:51.691Z,21.70
2023-05-25T11:35:18.807Z,22.20
2023-05-25T11:37:51.032Z,23.10
2023-05-25T11:40:18.123Z,23.70
2023-05-25T11:42:47.118Z,21.13
2023-05-25T11:45:17.925Z,20.10
2023-05-25T11:47:45.089Z,22.20
2023-05-25T11:50:17.401Z,18.42
2023-05-25T11:52:44.563Z,20.45
2023-05-25T11:55:15.273Z,21.35
2023-05-25T11:57:42.644Z,21.42
2023-05-25T12:00:11.559Z,24.27
2023-05-25T12:02:40.526Z,23.20
2023-05-25T12:05:10.699Z,21.65
2023-05-25T12:07:44.552Z,20.75
2023-05-25T12:10:13.777Z,21.35
2023-05-25T12:12:45.198Z,18.15
2023-05-25T12:15:15.093Z,19.25
2023-05-25T12:17:43.508Z,19.02
2023-05-25T12:20:12.602Z,22.98
2023-05-25T12:22:40.410Z,21.65
2023-05-25T12:25:08.907Z,20.95
2023-05-25T12:27:36.845Z,17.73
2023-05-25T12:30:10.626Z,22.23
2023-05-25T12:33:02.567Z,21.30
2023-05-25T12:35:45.847Z,19.47
2023-05-25T12:38:22.196Z,21.80
2023-05-25T12:41:05.240Z,25.77
2023-05-25T12:43:39.632Z,19.53
2023-05-25T12:46:06.913Z,25.35
2023-05-25T12:48:34.525Z,25.05
2023-05-25T12:51:02.197Z,24.70
2023-05-25T12:53:31.410Z,20.33
2023-05-25T12:56:02.481Z,22.45
2023-05-25T12:58:30.053Z,23.58
2023-05-25T13:00:57.166Z,20.23
2023-05-25T13:03:24.357Z,21.45
2023-05-25T13:05:52.133Z,22.55
2023-05-25T13:08:19.380Z,23.13
2023-05-25T13:10:51.262Z,20.77
2023-05-25T13:13:18.404Z,19.05
2023-05-25T13:15:45.464Z,21.60
2023-05-25T13:18:12.604Z,24.17
2023-05-25T13:20:39.962Z,18.85
2023-05-25T13:23:07.122Z,23.00
2023-05-25T13:25:34.191Z,24.13
2023-05-25T13:28:01.493Z,20.98
2023-05-25T13:30:29.030Z,24.85
2023-05-25T13:32:56.139Z,21.48
2023-05-25T13:35:37.421Z,19.95
2023-05-25T13:38:04.754Z,26.95
2023-05-25T13:40:31.836Z,23.17
2023-05-25T13:42:58.934Z,20.40
2023-05-25T13:45:26.063Z,21.00
2023-05-25T13:47:53.300Z,19.92
2023-05-25T13:50:20.453Z,24.95
2023-05-25T13:52:47.550Z,29.95
2023-05-25T13:55:14.635Z,22.02
2023-05-25T13:57:41.673Z,26.65
2023-05-25T14:00:09.692Z,22.42
2023-05-25T14:02:37.466Z,21.52
2023-05-25T14:05:05.218Z,20.85
2023-05-25T14:07:32.962Z,21.65
2023-05-25T14:10:00.470Z,21.13
2023-05-25T14:12:28.134Z,22.52
2023-05-25T14:15:52.281Z,17.83
2023-05-25T14:18:19.600Z,22.73
2023-05-25T14:20:46.874Z,20.88
2023-05-25T14:23:15.938Z,21.20
2023-05-25T14:25:46.046Z,22.38
2023-05-25T14:28:13.523Z,21.33
2023-05-25T14:30:41.418Z,23.25
2023-05-25T14:33:08.679Z,21.73
2023-05-25T14:35:35.812Z,21.00
2023-05-25T14:38:02.938Z,19.95
2023-05-25T14:40:30.039Z,23.02
2023-05-25T14:42:57.069Z,23.75
2023-05-25T14:45:24.189Z,23.05
2023-05-25T14:47:57.781Z,24.75
2023-05-25T14:50:31.465Z,24.52
2023-05-25T14:52:58.541Z,19.05
2023-05-25T14:55:25.897Z,21.73
2023-05-25T14:57:52.980Z,18.98
2023-05-25T15:00:20.232Z,17.27
2023-05-25T15:02:47.405Z,23.10
2023-05-25T15:05:14.620Z,18.90
2023-05-25T15:07:41.749Z,24.20
2023-05-25T15:10:09.231Z,18.45
2023-05-25T15:12:36.377Z,19.45
2023-05-25T15:15:03.638Z,18.75
2023-05-25T15:17:30.815Z,20.33
2023-05-25T15:19:58.050Z,20.80
2023-05-25T15:22:25.177Z,21.08
2023-05-25T15:24:52.263Z,18.60
2023-05-25T15:27:19.530Z,24.95
2023-05-25T15:29:46.828Z,19.25
2023-05-25T15:32:15.207Z,24.20
2023-05-25T15:34:42.269Z,22.05
2023-05-25T15:37:10.624Z,22.75
2023-05-25T15:39:38.309Z,25.85
2023-05-25T15:42:05.797Z,19.98
2023-05-25T15:44:32.923Z,26.17
2023-05-25T15:47:00.094Z,21.30
2023-05-25T15:50:12.065Z,23.48
2023-05-25T15:52:39.189Z,23.20
2023-05-25T15:55:06.883Z,18.80
2023-05-25T15:57:33.955Z,22.67
2023-05-25T16:00:01.094Z,19.38
2023-05-25T16:02:28.236Z,24.58
2023-05-25T16:04:55.435Z,22.25
2023-05-25T16:07:22.605Z,23.35
2023-05-25T16:09:49.622Z,20.90
2023-05-25T16:12:16.688Z,20.35
2023-05-25T16:14:44.215Z,20.45
2023-05-25T16:17:11.820Z,22.08
2023-05-25T16:19:38.834Z,21.45
2023-05-25T16:22:05.925Z,18.13
2023-05-25T16:24:32.972Z,20.45
2023-05-25T16:27:00.116Z,26.80
2023-05-25T16:29:27.350Z,25.35
2023-05-25T16:31:55.644Z,21.63
2023-05-25T16:34:22.957Z,20.40
2023-05-25T16:36:50.106Z,19.92
2023-05-25T16:39:17.135Z,25.73
2023-05-25T16:41:44.193Z,23.13
2023-05-25T16:44:11.682Z,17.58
2023-05-25T16:46:38.931Z,17.10
2023-05-25T16:49:06.246Z,19.55
2023-05-25T16:51:33.369Z,22.35
2023-05-25T16:54:00.465Z,18.90
2023-05-25T16:56:27.611Z,19.27
2023-05-25T16:58:55.237Z,18.15
2023-05-25T17:01:22.463Z,19.05
2023-05-25T17:03:49.720Z,24.33
2023-05-25T17:06:16.948Z,19.67
2023-05-25T17:08:44.066Z,17.30
2023-05-25T17:11:11.277Z,20.73
2023-05-25T17:13:38.318Z,23.50
2023-05-25T17:16:05.737Z,21.00
2023-05-25T17:18:32.857Z,19.63
2023-05-25T17:21:00.065Z,20.33
2023-05-25T17:23:27.286Z,19.23
2023-05-25T17:25:54.348Z,21.48
2023-05-25T17:28:21.464Z,17.90
2023-05-25T17:30:48.762Z,21.45
2023-05-25T17:33:16.013Z,19.73
2023-05-25T17:35:43.308Z,24.17
2023-05-25T17:38:10.950Z,23.58
2023-05-25T17:40:38.111Z,20.38
2023-05-25T17:43:05.203Z,26.67
2023-05-25T17:45:32.338Z,24.95
2023-05-25T17:47:59.662Z,23.42
2023-05-25T17:50:26.779Z,22.40
2023-05-25T17:52:53.951Z,24.77
2023-05-25T17:55:21.179Z,25.73
2023-05-25T17:57:48.230Z,23.88
2023-05-25T18:00:16.009Z,22.30
2023-05-25T18:02:43.222Z,19.80
2023-05-25T18:05:10.399Z,21.00
2023-05-25T18:07:37.552Z,21.17
2023-05-25T18:10:05.033Z,19.27
2023-05-25T18:12:32.153Z,21.75
2023-05-25T18:14:59.338Z,23.95
2023-05-25T18:17:27.090Z,21.60
2023-05-25T18:19:54.338Z,21.58
2023-05-25T18:22:21.444Z,20.15
2023-05-25T18:24:48.525Z,20.98
2023-05-25T18:27:15.738Z,23.10
2023-05-25T18:29:42.849Z,22.58
2023-05-25T18:32:10.249Z,18.50
2023-05-25T18:34:37.368Z,21.92
2023-05-25T18:37:04.692Z,22.30
2023-05-25T18:39:31.947Z,24.98
2023-05-25T18:41:59.058Z,22.90
2023-05-25T18:44:27.039Z,22.17
2023-05-25T18:46:56.649Z,23.20
2023-05-25T18:49:24.629Z,20.10
2023-05-25T18:51:51.707Z,22.92
2023-05-25T18:54:18.894Z,21.98
2023-05-25T18:56:46.443Z,21.30
2023-05-25T18:59:13.635Z,21.83
2023-05-25T19:01:40.829Z,24.50
2023-05-25T19:04:08.049Z,24.45
2023-05-25T19:06:35.253Z,23.25
2023-05-25T19:09:02.405Z,22.73
2023-05-25T19:11:29.818Z,24.45
2023-05-25T19:13:56.935Z,24.05
2023-05-25T19:16:24.096Z,24.70
2023-05-25T19:18:51.282Z,22.80
2023-05-25T19:21:18.631Z,24.08
2023-05-25T19:23:45.917Z,23.55
2023-05-25T19:26:13.078Z,25.45
2023-05-25T19:28:40.170Z,23.80
2023-05-25T19:31:07.278Z,22.25
2023-05-25T19:33:34.420Z,23.23
2023-05-25T19:36:01.995Z,23.20
2023-05-25T19:38:40.201Z,22.92
2023-05-25T19:41:08.150Z,22.52
2023-05-25T19:43:36.311Z,21.02
2023-05-25T19:46:03.544Z,26.95
2023-05-25T19:48:31.237Z,23.98
2023-05-25T19:50:58.307Z,24.90
2023-05-25T19:53:25.817Z,26.38
2023-05-25T19:55:52.922Z,23.58
2023-05-25T19:58:20.004Z,21.45
2023-05-25T20:00:47.060Z,22.73
2023-05-25T20:03:16.715Z,19.17
2023-05-25T20:05:44.525Z,28.20
2023-05-25T20:08:11.780Z,21.92
2023-05-25T20:10:39.732Z,24.20
2023-05-25T20:13:07.645Z,23.60
2023-05-25T20:15:35.368Z,21.55
2023-05-25T20:18:02.892Z,23.38
2023-05-25T20:20:30.024Z,20.88
2023-05-25T20:22:57.266Z,26.10
2023-05-25T20:25:24.347Z,22.05
2023-05-25T20:27:51.544Z,27.05
2023-05-25T20:30:18.590Z,27.38
2023-05-25T20:32:46.032Z,25.95
2023-05-25T20:35:13.575Z,24.63
2023-05-25T20:37:42.073Z,21.38
2023-05-25T20:40:09.529Z,26.30
2023-05-25T20:42:36.643Z,21.02
2023-05-25T20:45:04.926Z,25.95
2023-05-25T20:47:32.122Z,26.20
2023-05-25T20:49:59.216Z,21.67
2023-05-25T20:52:26.395Z,22.73
2023-05-25T20:54:53.490Z,22.05
2023-05-25T20:57:20.711Z,23.58
2023-05-25T20:59:48.922Z,23.77
2023-05-25T21:02:16.528Z,25.67
2023-05-25T21:04:43.686Z,25.70
2023-05-25T21:07:10.753Z,21.80
2023-05-25T21:09:37.887Z,26.17
2023-05-25T21:12:05.124Z,25.58
2023-05-25T21:14:32.296Z,31.92
2023-05-25T21:16:59.423Z,20.30
2023-05-25T21:19:26.766Z,22.88
2023-05-25T21:21:53.927Z,26.35
2023-05-25T21:24:21.325Z,24.45
2023-05-25T21:26:48.384Z,25.17
2023-05-25T21:29:15.543Z,21.90
2023-05-25T21:31:42.770Z,24.80
2023-05-25T21:34:09.898Z,24.08
2023-05-25T21:36:36.972Z,28.77
2023-05-25T21:39:04.034Z,27.02
2023-05-25T21:41:31.138Z,24.48
2023-05-25T21:43:58.294Z,22.38
2023-05-25T21:46:25.429Z,24.98
2023-05-25T21:48:52.518Z,25.17
2023-05-25T21:51:19.766Z,24.83
2023-05-25T21:53:46.832Z,24.45
2023-05-25T21:56:14.414Z,27.90
2023-05-25T21:58:41.587Z,24.52
2023-05-25T22:01:08.850Z,26.23
2023-05-25T22:03:36.215Z,28.70
2023-05-25T22:06:03.440Z,25.02
2023-05-25T22:08:30.576Z,23.73
2023-05-25T22:10:57.628Z,24.92
2023-05-25T22:13:24.706Z,19.42
2023-05-25T22:15:51.778Z,26.40
2023-05-25T22:18:18.895Z,29.15
2023-05-25T22:20:46.035Z,22.45
2023-05-25T22:23:13.438Z,25.80
2023-05-25T22:25:40.555Z,28.17
2023-05-25T22:28:07.780Z,26.48
2023-05-25T22:30:35.090Z,25.02
2023-05-25T22:33:02.390Z,26.45
2023-05-25T22:35:29.736Z,23.85
2023-05-25T22:37:56.823Z,24.83
2023-05-25T22:40:31.379Z,27.00
2023-05-25T22:42:58.481Z,24.67
2023-05-25T22:45:25.672Z,22.63
2023-05-25T22:47:52.825Z,26.27
2023-05-25T22:50:20.082Z,28.98
2023-05-25T22:52:47.129Z,28.95
2023-05-25T22:55:14.172Z,24.50
2023-05-25T22:57:41.377Z,25.80
2023-05-25T23:00:09.034Z,27.48
2023-05-25T23:02:36.312Z,29.80
2023-05-25T23:05:03.629Z,22.33
2023-05-25T23:07:31.637Z,26.70
2023-05-25T23:09:58.803Z,29.67
2023-05-25T23:12:25.855Z,26.98
2023-05-25T23:14:53.640Z,25.83
2023-05-25T23:17:21.720Z,27.20
2023-05-25T23:19:48.887Z,27.15
2023-05-25T23:22:16.221Z,23.95
2023-05-25T23:24:43.302Z,25.33
2023-05-25T23:27:10.470Z,25.70
2023-05-25T23:29:37.619Z,24.58
2023-05-25T23:32:05.182Z,23.73
2023-05-25T23:34:32.352Z,25.88
2023-05-25T23:36:59.391Z,23.77
2023-05-25T23:39:26.967Z,28.25
2023-05-25T23:41:53.999Z,24.70
2023-05-25T23:44:21.152Z,27.90
2023-05-25T23:46:48.258Z,25.52
2023-05-25T23:49:15.397Z,24.85
2023-05-25T23:51:42.476Z,24.33
2023-05-25T23:54:10.229Z,26.70
2023-05-25T23:56:37.301Z,21.85
2023-05-25T23:59:04.508Z,21.35
